Time;durP1;ratioP1;P1;durP2;ratioP2;P2;SDS_P1;SDS_P2;PMS_P1;PMS_P2;Temp;Humidity;BMP_temperature;BMP_pressure;BME280_temperature;BME280_humidity;BME280_pressure;Samples;Min_cycle;Max_cycle;Signal;HPM_P1;HPM_P2
2022/08/08 00:00:10;;;;;;;3.63;2.15;;;18.00;99.90;;;;;;5113642;28;20612;-42
2022/08/08 00:03:03;;;;;;;2.78;2.05;;;18.00;99.90;;;;;;5100070;28;20176;-42
2022/08/08 00:05:50;;;;;;;2.53;1.85;;;18.00;99.90;;;;;;5113105;28;20275;-43
2022/08/08 00:08:30;;;;;;;7.88;2.42;;;18.00;99.90;;;;;;5113270;28;20521;-42
2022/08/08 00:11:18;;;;;;;5.90;2.90;;;18.00;99.90;;;;;;5113365;28;20179;-43
2022/08/08 00:14:05;;;;;;;3.60;2.53;;;17.80;99.90;;;;;;5112915;28;20216;-42
2022/08/08 00:16:46;;;;;;;2.42;2.22;;;17.90;99.90;;;;;;5113394;28;20165;-42
2022/08/08 00:19:20;;;;;;;4.10;2.50;;;17.80;99.90;;;;;;5113263;28;20196;-42
2022/08/08 00:21:54;;;;;;;3.85;2.38;;;17.80;99.90;;;;;;5112976;28;20616;-45
2022/08/08 00:24:27;;;;;;;3.88;2.30;;;17.80;99.90;;;;;;5112976;28;20169;-42
2022/08/08 00:26:57;;;;;;;2.90;2.50;;;17.80;99.90;;;;;;5112810;28;20655;-42
2022/08/08 00:29:35;;;;;;;4.45;2.78;;;17.80;99.90;;;;;;5113087;28;20168;-42
2022/08/08 00:32:09;;;;;;;3.13;2.50;;;17.80;99.90;;;;;;5113204;28;20196;-42
2022/08/08 00:37:52;;;;;;;6.03;2.70;;;17.60;99.90;;;;;;5113080;28;20233;-43
2022/08/08 00:40:29;;;;;;;3.00;2.70;;;17.60;99.90;;;;;;5112623;28;20612;-42
2022/08/08 00:43:05;;;;;;;3.30;2.75;;;17.60;99.90;;;;;;5112625;28;20165;-42
2022/08/08 00:46:08;;;;;;;3.47;2.50;;;17.60;99.90;;;;;;5112797;28;20219;-44
2022/08/08 00:48:39;;;;;;;4.57;2.50;;;17.60;99.90;;;;;;5112846;28;20628;-45
2022/08/08 00:51:22;;;;;;;3.83;2.55;;;17.60;99.90;;;;;;5112478;28;20168;-42
2022/08/08 00:54:18;;;;;;;3.83;2.75;;;17.60;99.90;;;;;;5112450;28;20185;-43
2022/08/08 00:57:16;;;;;;;4.28;2.90;;;17.60;99.90;;;;;;5112414;28;20190;-42
2022/08/08 01:00:06;;;;;;;2.67;2.47;;;17.60;99.90;;;;;;5112405;28;20230;-42
2022/08/08 01:03:17;;;;;;;3.72;2.65;;;17.50;99.90;;;;;;5112995;28;20160;-43
2022/08/08 01:06:31;;;;;;;5.10;3.08;;;17.50;99.90;;;;;;5112264;28;20188;-42
2022/08/08 01:09:02;;;;;;;3.60;3.05;;;17.40;99.90;;;;;;5099039;28;20190;-42
2022/08/08 01:11:58;;;;;;;4.72;2.75;;;17.40;99.90;;;;;;5112361;28;20289;-43
2022/08/08 01:15:05;;;;;;;6.20;3.00;;;17.40;99.90;;;;;;5112241;28;20184;-42
2022/08/08 01:17:49;;;;;;;5.15;3.20;;;17.30;99.90;;;;;;5112572;28;20164;-43
2022/08/08 01:20:53;;;;;;;3.85;3.13;;;17.10;99.90;;;;;;5112159;28;20190;-43
2022/08/08 01:23:34;;;;;;;5.03;2.85;;;17.10;99.90;;;;;;5108912;28;20229;-42
2022/08/08 01:26:54;;;;;;;7.07;3.22;;;17.10;99.90;;;;;;5111117;28;20204;-42
2022/08/08 01:29:28;;;;;;;3.72;3.00;;;17.00;99.90;;;;;;5112120;28;20519;-43
2022/08/08 01:32:42;;;;;;;6.07;3.13;;;17.00;99.90;;;;;;5112088;28;20174;-42
2022/08/08 01:35:30;;;;;;;5.38;3.03;;;16.90;99.90;;;;;;5112100;28;20175;-42
2022/08/08 01:38:49;;;;;;;3.05;2.63;;;16.90;99.90;;;;;;5112190;28;20172;-42
2022/08/08 01:41:30;;;;;;;3.88;3.00;;;16.90;99.90;;;;;;5049380;28;20220;-42
2022/08/08 01:44:33;;;;;;;3.95;3.10;;;16.90;99.90;;;;;;5104989;28;20192;-42
2022/08/08 01:47:35;;;;;;;4.20;3.13;;;16.90;99.90;;;;;;5112133;28;20554;-42
2022/08/08 01:50:11;;;;;;;4.57;3.10;;;16.90;99.90;;;;;;5112279;28;20213;-42
2022/08/08 01:52:56;;;;;;;3.42;2.90;;;16.90;99.90;;;;;;5111910;28;20160;-47
2022/08/08 01:55:46;;;;;;;4.82;3.03;;;17.00;99.90;;;;;;5111923;28;20167;-41
2022/08/08 01:58:39;;;;;;;5.25;3.90;;;16.90;99.90;;;;;;5112048;28;20165;-42
2022/08/08 02:01:16;;;;;;;3.85;2.90;;;16.90;99.90;;;;;;5108658;28;20181;-43
2022/08/08 02:04:13;;;;;;;3.75;3.15;;;16.80;99.90;;;;;;5111907;28;20167;-43
2022/08/08 02:07:03;;;;;;;4.13;3.15;;;16.80;99.90;;;;;;5111943;28;20663;-43
2022/08/08 02:09:40;;;;;;;6.82;3.47;;;16.70;99.90;;;;;;5111747;28;20156;-43
2022/08/08 02:12:14;;;;;;;4.95;3.30;;;16.60;99.90;;;;;;5110303;28;20299;-44
2022/08/08 02:14:47;;;;;;;6.38;3.03;;;16.60;99.90;;;;;;5111661;28;20180;-43
2022/08/08 02:17:21;;;;;;;3.50;3.15;;;16.60;99.90;;;;;;5114236;28;20168;-42
2022/08/08 02:20:18;;;;;;;5.20;3.50;;;16.50;99.90;;;;;;5115329;28;20191;-42
2022/08/08 02:22:49;;;;;;;7.30;3.45;;;16.50;99.90;;;;;;5115241;28;20171;-46
2022/08/08 02:25:35;;;;;;;7.60;3.88;;;16.50;99.90;;;;;;5115436;28;20563;-42
2022/08/08 02:28:05;;;;;;;9.02;3.22;;;16.50;99.90;;;;;;5115643;28;20245;-43
2022/08/08 02:30:59;;;;;;;5.72;3.78;;;16.10;99.90;;;;;;5115680;28;20165;-42
2022/08/08 02:33:43;;;;;;;4.53;3.38;;;16.40;99.90;;;;;;5115143;28;20636;-44
2022/08/08 02:36:35;;;;;;;6.93;3.40;;;16.30;99.90;;;;;;5114994;28;20164;-42
2022/08/08 02:39:03;;;;;;;5.43;3.60;;;16.40;99.90;;;;;;5115313;28;20160;-43
2022/08/08 02:42:08;;;;;;;4.40;3.53;;;16.30;99.90;;;;;;5115242;28;20522;-41
2022/08/08 02:44:46;;;;;;;5.90;3.65;;;16.40;99.90;;;;;;5114864;28;20309;-42
2022/08/08 02:47:50;;;;;;;4.13;3.72;;;16.30;99.90;;;;;;5114751;28;20203;-45
2022/08/08 02:50:34;;;;;;;6.55;3.58;;;16.30;99.90;;;;;;5114865;28;20576;-44
2022/08/08 02:53:21;;;;;;;6.10;3.90;;;16.30;99.90;;;;;;5115096;28;20194;-43
2022/08/08 02:55:55;;;;;;;4.97;3.60;;;16.30;99.90;;;;;;5114636;28;20528;-42
2022/08/08 02:58:52;;;;;;;3.95;3.22;;;16.30;99.90;;;;;;5114872;28;20168;-42
2022/08/08 03:01:37;;;;;;;7.78;3.92;;;16.40;99.90;;;;;;5109937;28;20187;-43
2022/08/08 03:04:24;;;;;;;4.82;3.70;;;16.30;99.90;;;;;;5114871;28;20168;-42
2022/08/08 03:07:23;;;;;;;6.07;3.78;;;16.20;99.90;;;;;;5114304;28;20667;-45
2022/08/08 03:10:03;;;;;;;5.20;3.85;;;16.30;99.90;;;;;;5114356;28;20156;-43
2022/08/08 03:12:59;;;;;;;6.68;3.70;;;16.30;99.90;;;;;;5114489;28;20231;-42
2022/08/08 03:15:55;;;;;;;7.80;3.95;;;16.20;99.90;;;;;;5114266;28;20161;-42
2022/08/08 03:18:32;;;;;;;5.65;4.18;;;16.20;99.90;;;;;;5114267;28;20237;-44
2022/08/08 03:20:57;;;;;;;4.95;4.45;;;16.20;99.90;;;;;;5097355;28;20207;-42
2022/08/08 03:23:23;;;;;;;4.57;4.07;;;16.10;99.90;;;;;;5114079;28;20169;-44
2022/08/08 03:25:50;;;;;;;5.40;4.22;;;16.20;99.90;;;;;;5113910;28;20241;-42
2022/08/08 03:28:42;;;;;;;5.05;3.92;;;16.20;99.90;;;;;;5113074;28;20179;-42
2022/08/08 03:33:53;;;;;;;7.65;4.25;;;16.20;99.90;;;;;;5114091;28;20176;-43
2022/08/08 03:36:19;;;;;;;7.57;4.22;;;16.10;99.90;;;;;;5113510;28;20688;-43
2022/08/08 03:38:49;;;;;;;5.38;4.18;;;16.20;99.90;;;;;;5113844;28;20662;-42
2022/08/08 03:41:15;;;;;;;7.45;3.72;;;16.20;99.90;;;;;;5113898;28;20597;-43
2022/08/08 03:43:41;;;;;;;6.40;4.60;;;16.10;99.90;;;;;;5113648;28;20647;-43
2022/08/08 03:46:06;;;;;;;6.97;4.47;;;16.10;99.90;;;;;;5113530;28;20205;-44
2022/08/08 03:48:32;;;;;;;9.32;4.82;;;16.20;99.90;;;;;;5113998;28;20169;-42
2022/08/08 03:50:58;;;;;;;7.28;4.80;;;16.10;99.90;;;;;;5113573;28;20172;-43
2022/08/08 03:53:24;;;;;;;7.25;4.45;;;16.10;99.90;;;;;;5113538;28;20172;-42
2022/08/08 03:55:51;;;;;;;7.82;4.68;;;16.10;99.90;;;;;;5113490;28;20172;-45
2022/08/08 03:58:23;;;;;;;9.55;4.30;;;16.00;99.90;;;;;;5113367;28;20248;-42
2022/08/08 04:00:51;;;;;;;5.32;3.97;;;16.00;99.90;;;;;;5113417;28;20161;-42
2022/08/08 04:03:17;;;;;;;7.15;4.43;;;16.10;99.90;;;;;;5113469;28;20173;-42
2022/08/08 04:05:42;;;;;;;6.22;4.85;;;16.00;99.90;;;;;;5113208;28;20568;-42
2022/08/08 04:08:19;;;;;;;9.55;5.30;;;15.90;99.90;;;;;;5113204;28;20182;-42
2022/08/08 04:10:49;;;;;;;6.88;4.72;;;16.00;99.90;;;;;;5113327;28;20179;-43
2022/08/08 04:13:15;;;;;;;14.13;4.95;;;16.00;99.90;;;;;;5113085;28;20296;-42
2022/08/08 04:15:42;;;;;;;6.15;4.75;;;15.90;99.90;;;;;;5113261;28;20161;-42
2022/08/08 04:18:07;;;;;;;11.57;5.75;;;16.00;99.90;;;;;;5113013;28;20620;-42
2022/08/08 04:20:33;;;;;;;7.85;4.45;;;15.90;99.90;;;;;;5113075;28;20167;-42
2022/08/08 04:22:58;;;;;;;8.50;5.20;;;15.90;99.90;;;;;;5113182;28;20207;-43
2022/08/08 04:25:24;;;;;;;8.45;5.32;;;15.90;99.90;;;;;;5113000;27;20176;-49
2022/08/08 04:27:50;;;;;;;10.23;5.53;;;16.00;99.90;;;;;;5112778;28;20176;-43
2022/08/08 04:30:16;;;;;;;9.82;5.20;;;15.90;99.90;;;;;;5112729;28;20165;-44
2022/08/08 04:32:41;;;;;;;7.95;5.18;;;15.90;99.90;;;;;;5112676;28;20168;-43
2022/08/08 04:35:07;;;;;;;6.15;4.90;;;16.00;99.90;;;;;;5112587;28;20206;-43
2022/08/08 04:37:33;;;;;;;8.10;5.07;;;16.00;99.90;;;;;;5113103;28;20164;-42
2022/08/08 04:39:59;;;;;;;7.63;5.38;;;16.00;99.90;;;;;;5112905;28;20673;-48
2022/08/08 04:42:25;;;;;;;8.18;5.10;;;15.90;99.90;;;;;;5112568;28;20169;-47
2022/08/08 04:44:54;;;;;;;7.45;4.93;;;15.90;99.90;;;;;;5112946;28;20180;-44
2022/08/08 04:47:20;;;;;;;4.80;4.30;;;16.00;99.90;;;;;;5112580;28;20208;-44
2022/08/08 04:49:45;;;;;;;6.50;4.72;;;16.00;99.90;;;;;;5111729;28;20281;-42
2022/08/08 04:52:12;;;;;;;5.32;4.07;;;16.00;99.90;;;;;;5112325;28;20702;-49
2022/08/08 04:54:37;;;;;;;6.55;4.75;;;16.10;99.90;;;;;;5112595;28;20165;-46
2022/08/08 04:57:03;;;;;;;8.57;5.13;;;16.10;99.90;;;;;;5112199;28;20650;-43
2022/08/08 04:59:29;;;;;;;10.30;5.15;;;16.10;99.90;;;;;;5112703;28;20176;-44
2022/08/08 05:01:55;;;;;;;6.50;4.95;;;16.10;99.90;;;;;;5111832;28;20245;-52
2022/08/08 05:04:20;;;;;;;7.18;4.72;;;16.10;99.90;;;;;;5112252;28;20175;-49
2022/08/08 05:06:47;;;;;;;7.05;4.78;;;16.10;99.90;;;;;;5112199;28;20283;-43
2022/08/08 05:09:12;;;;;;;5.30;4.55;;;16.20;99.90;;;;;;5112326;28;20169;-52
2022/08/08 05:11:38;;;;;;;7.57;5.28;;;16.10;99.90;;;;;;5112342;28;20160;-51
2022/08/08 05:14:04;;;;;;;7.40;4.32;;;16.20;99.90;;;;;;5112082;28;20216;-53
2022/08/08 05:16:30;;;;;;;7.63;4.65;;;16.20;99.90;;;;;;5112615;28;20164;-51
2022/08/08 05:18:56;;;;;;;7.38;4.78;;;16.30;99.90;;;;;;5112077;28;20172;-53
2022/08/08 05:21:21;;;;;;;6.45;4.43;;;16.40;99.90;;;;;;5112201;28;20164;-51
2022/08/08 05:23:47;;;;;;;12.35;4.72;;;16.50;99.90;;;;;;5110865;28;20161;-47
2022/08/08 05:26:12;;;;;;;12.25;4.97;;;16.60;99.90;;;;;;5110189;28;20223;-50
2022/08/08 05:28:38;;;;;;;9.48;4.80;;;16.60;99.90;;;;;;5110735;28;20194;-46
2022/08/08 05:31:04;;;;;;;6.60;5.15;;;16.80;99.90;;;;;;5110369;28;20169;-50
2022/08/08 05:33:30;;;;;;;7.18;4.57;;;16.70;99.90;;;;;;5110719;28;20183;-52
2022/08/08 05:35:58;;;;;;;10.98;4.78;;;16.80;99.90;;;;;;5110358;28;20179;-50
2022/08/08 05:38:27;;;;;;;8.20;4.50;;;16.80;99.90;;;;;;5111078;28;20560;-47
2022/08/08 05:40:53;;;;;;;10.82;4.78;;;16.90;99.90;;;;;;5111820;28;20176;-48
2022/08/08 05:43:27;;;;;;;6.43;4.75;;;17.10;99.90;;;;;;5111826;28;20161;-51
2022/08/08 05:46:01;;;;;;;6.30;4.32;;;17.20;99.90;;;;;;5111695;28;20200;-48
2022/08/08 05:48:27;;;;;;;7.65;5.32;;;17.20;99.90;;;;;;5111723;28;20160;-49
2022/08/08 05:50:53;;;;;;;6.60;5.28;;;17.20;99.90;;;;;;5112261;28;20191;-48
2022/08/08 05:53:26;;;;;;;5.85;4.95;;;17.40;99.90;;;;;;5115666;28;20161;-50
2022/08/08 05:55:54;;;;;;;6.90;5.25;;;17.50;99.90;;;;;;5115772;28;20509;-51
2022/08/08 05:58:27;;;;;;;8.98;5.32;;;17.60;99.90;;;;;;5115713;28;20157;-50
2022/08/08 06:00:55;;;;;;;5.53;4.32;;;17.50;99.90;;;;;;5115608;28;20644;-44
2022/08/08 06:03:22;;;;;;;6.43;4.57;;;17.60;99.90;;;;;;5115580;28;20628;-47
2022/08/08 06:05:51;;;;;;;5.97;4.80;;;17.70;99.90;;;;;;5115425;28;20208;-45
2022/08/08 06:08:29;;;;;;;5.97;4.35;;;17.70;99.90;;;;;;5115569;28;20157;-47
2022/08/08 06:10:57;;;;;;;5.70;5.18;;;17.80;99.90;;;;;;5115438;28;20157;-44
2022/08/08 06:13:24;;;;;;;6.93;4.82;;;17.70;99.90;;;;;;5115358;28;20221;-45
2022/08/08 06:15:53;;;;;;;7.82;5.18;;;17.80;99.90;;;;;;5115623;28;20528;-48
2022/08/08 06:18:22;;;;;;;6.80;5.22;;;17.80;99.90;;;;;;5115550;28;20248;-47
2022/08/08 06:20:52;;;;;;;7.25;5.95;;;17.80;99.90;;;;;;5115469;28;20197;-45
2022/08/08 06:23:18;;;;;;;6.25;4.75;;;17.80;99.90;;;;;;5115243;28;20196;-43
2022/08/08 06:25:52;;;;;;;6.45;5.35;;;18.00;99.90;;;;;;5115372;28;20678;-45
2022/08/08 06:28:28;;;;;;;6.38;5.30;;;18.10;99.90;;;;;;5115153;28;20176;-48
2022/08/08 06:30:58;;;;;;;6.88;5.68;;;18.20;99.90;;;;;;5115125;28;20180;-47
2022/08/08 06:33:46;;;;;;;8.52;6.30;;;18.30;99.90;;;;;;5115063;28;20711;-48
2022/08/08 06:36:24;;;;;;;7.47;4.75;;;18.30;99.90;;;;;;5115047;28;20256;-42
2022/08/08 06:38:53;;;;;;;7.57;5.50;;;18.40;99.90;;;;;;5114946;28;20619;-43
2022/08/08 06:41:19;;;;;;;6.65;5.65;;;18.40;99.90;;;;;;5114932;28;20157;-44
2022/08/08 06:43:47;;;;;;;7.43;5.22;;;18.50;99.90;;;;;;5115088;28;20194;-44
2022/08/08 06:46:13;;;;;;;9.20;6.00;;;18.50;99.90;;;;;;5114805;28;20211;-48
2022/08/08 06:48:40;;;;;;;6.90;5.15;;;18.50;99.90;;;;;;5115008;28;20169;-43
2022/08/08 06:51:05;;;;;;;9.23;5.63;;;18.70;99.90;;;;;;5115019;28;20506;-42
2022/08/08 06:53:32;;;;;;;10.13;6.03;;;18.80;99.90;;;;;;5096706;28;20161;-45
2022/08/08 06:55:58;;;;;;;8.63;5.28;;;18.70;99.90;;;;;;5115030;28;20244;-44
2022/08/08 06:58:24;;;;;;;9.32;6.63;;;18.70;99.90;;;;;;5114856;28;20169;-42
2022/08/08 07:00:51;;;;;;;6.85;5.22;;;18.80;99.90;;;;;;5114531;28;20172;-44
2022/08/08 07:03:30;;;;;;;8.40;5.13;;;18.90;99.90;;;;;;5114506;28;20180;-43
2022/08/08 07:05:56;;;;;;;7.30;5.50;;;19.10;99.90;;;;;;5114595;28;20230;-44
2022/08/08 07:08:32;;;;;;;9.80;6.00;;;19.20;99.90;;;;;;5114457;28;20543;-42
2022/08/08 07:11:01;;;;;;;7.43;5.40;;;19.30;99.90;;;;;;5114688;28;20161;-42
2022/08/08 07:13:36;;;;;;;7.40;5.30;;;19.30;99.90;;;;;;5114524;28;20212;-46
2022/08/08 07:16:27;;;;;;;8.35;5.05;;;19.50;99.90;;;;;;5114370;28;20628;-42
2022/08/08 07:19:15;;;;;;;5.63;5.03;;;19.60;99.90;;;;;;5114200;28;20172;-45
2022/08/08 07:21:45;;;;;;;9.38;5.32;;;19.60;99.90;;;;;;5114085;28;20658;-43
2022/08/08 07:24:22;;;;;;;10.80;5.18;;;19.80;99.90;;;;;;5114119;28;20229;-43
2022/08/08 07:26:52;;;;;;;6.72;4.65;;;19.90;99.90;;;;;;5113974;28;20341;-42
2022/08/08 07:29:18;;;;;;;10.10;5.90;;;19.80;99.90;;;;;;5113977;28;20217;-44
2022/08/08 07:31:44;;;;;;;6.82;4.88;;;20.00;99.90;;;;;;5113976;28;20747;-51
2022/08/08 07:34:11;;;;;;;11.15;5.43;;;20.10;99.90;;;;;;5113876;28;20200;-52
2022/08/08 07:36:37;;;;;;;6.95;4.90;;;20.30;99.90;;;;;;5114125;28;20268;-53
2022/08/08 07:39:04;;;;;;;6.65;5.00;;;20.40;99.90;;;;;;5113796;28;20640;-52
2022/08/08 07:41:31;;;;;;;6.40;5.00;;;20.50;99.90;;;;;;5114098;28;20196;-53
2022/08/08 07:43:59;;;;;;;6.78;4.95;;;20.50;99.90;;;;;;5114091;28;20167;-53
2022/08/08 07:46:25;;;;;;;7.05;4.20;;;20.60;99.90;;;;;;5113554;28;20196;-52
2022/08/08 07:48:50;;;;;;;6.78;4.95;;;20.80;99.90;;;;;;5113520;28;20164;-52
2022/08/08 07:51:17;;;;;;;8.10;4.93;;;20.90;99.90;;;;;;5113479;28;20632;-51
2022/08/08 07:54:04;;;;;;;6.63;4.43;;;20.90;99.90;;;;;;5113417;28;20172;-46
2022/08/08 07:56:38;;;;;;;7.53;4.18;;;21.10;99.90;;;;;;5113681;28;20652;-50
2022/08/08 07:59:14;;;;;;;8.63;4.68;;;21.20;99.90;;;;;;5113368;28;20175;-51
2022/08/08 08:01:49;;;;;;;5.85;4.40;;;21.20;99.90;;;;;;5113369;28;20654;-50
2022/08/08 08:04:17;;;;;;;6.80;4.65;;;21.40;99.90;;;;;;5113275;28;20164;-52
2022/08/08 08:06:44;;;;;;;9.88;4.50;;;21.60;99.90;;;;;;5113170;28;20231;-51
2022/08/08 08:09:21;;;;;;;6.10;4.40;;;21.60;99.90;;;;;;5113139;28;20172;-50
2022/08/08 08:11:49;;;;;;;5.60;4.18;;;21.70;99.90;;;;;;5113028;28;20658;-52
2022/08/08 08:14:18;;;;;;;6.57;4.20;;;21.80;99.90;;;;;;5112688;28;20255;-43
2022/08/08 08:16:46;;;;;;;4.97;3.83;;;21.90;99.90;;;;;;5113106;28;20223;-43
2022/08/08 08:19:13;;;;;;;6.15;3.70;;;22.00;99.90;;;;;;5112986;28;20210;-49
2022/08/08 08:21:47;;;;;;;7.30;3.95;;;22.20;99.90;;;;;;5113008;28;20628;-47
2022/08/08 08:24:13;;;;;;;6.80;3.75;;;22.30;99.90;;;;;;5112956;28;20497;-49
2022/08/08 08:26:39;;;;;;;4.72;3.60;;;22.40;99.90;;;;;;5112821;28;20695;-47
2022/08/08 08:29:05;;;;;;;5.18;3.67;;;22.30;99.90;;;;;;5112869;28;20208;-51
2022/08/08 08:31:31;;;;;;;7.80;4.70;;;22.50;99.90;;;;;;5113194;28;20218;-50
2022/08/08 08:33:57;;;;;;;5.07;3.30;;;23.60;99.90;;;;;;5113093;28;20243;-43
2022/08/08 08:36:23;;;;;;;4.88;3.30;;;22.60;99.90;;;;;;5112730;28;20243;-43
2022/08/08 08:38:50;;;;;;;6.13;3.47;;;22.70;99.90;;;;;;5112856;28;20172;-47
2022/08/08 08:41:18;;;;;;;5.00;3.30;;;22.90;99.90;;;;;;5112623;28;20168;-50
2022/08/08 08:43:45;;;;;;;6.55;3.03;;;22.90;99.90;;;;;;5112648;28;20164;-49
2022/08/08 08:46:12;;;;;;;7.95;3.58;;;22.90;99.90;;;;;;5112694;28;20203;-43
2022/08/08 08:48:40;;;;;;;4.72;3.53;;;22.90;99.90;;;;;;5112521;28;20164;-42
2022/08/08 08:51:13;;;;;;;4.32;3.40;;;23.10;99.90;;;;;;5112457;28;20203;-46
2022/08/08 08:53:50;;;;;;;5.00;3.22;;;23.30;99.90;;;;;;5112522;28;20213;-43
2022/08/08 08:56:18;;;;;;;6.35;2.95;;;23.40;99.90;;;;;;5112456;28;20164;-47
2022/08/08 08:58:48;;;;;;;5.05;3.03;;;23.50;99.90;;;;;;5112387;28;20168;-49
2022/08/08 09:01:24;;;;;;;4.95;3.38;;;23.70;99.90;;;;;;5112425;28;20176;-44
2022/08/08 09:03:51;;;;;;;4.78;3.40;;;23.90;99.90;;;;;;5112458;28;20207;-47
2022/08/08 09:06:25;;;;;;;4.10;3.38;;;23.90;99.90;;;;;;5112021;28;20214;-46
2022/08/08 09:08:58;;;;;;;6.25;3.33;;;23.80;99.90;;;;;;5112295;28;20654;-45
2022/08/08 09:11:25;;;;;;;4.40;3.15;;;23.90;99.90;;;;;;5111999;28;20662;-50
2022/08/08 09:13:51;;;;;;;4.25;3.10;;;23.80;99.90;;;;;;5111872;28;20268;-47
2022/08/08 09:16:17;;;;;;;3.75;2.88;;;24.00;99.90;;;;;;5112179;28;20160;-50
2022/08/08 09:18:44;;;;;;;6.40;3.17;;;24.10;99.90;;;;;;5112254;28;20173;-49
2022/08/08 09:21:10;;;;;;;3.72;2.63;;;24.10;99.90;;;;;;5112279;28;20161;-48
2022/08/08 09:23:36;;;;;;;6.72;3.28;;;24.20;99.90;;;;;;5112483;28;20251;-51
2022/08/08 09:26:37;;;;;;;4.55;2.88;;;24.30;99.90;;;;;;5114305;28;20608;-48
2022/08/08 09:29:05;;;;;;;3.35;2.55;;;24.40;99.90;;;;;;5091108;28;20540;-48
2022/08/08 09:31:43;;;;;;;6.28;3.05;;;24.50;99.90;;;;;;5116676;28;20196;-50
2022/08/08 09:34:10;;;;;;;3.92;2.83;;;24.50;99.90;;;;;;5115724;28;20169;-47
2022/08/08 09:36:39;;;;;;;4.63;2.72;;;24.40;99.90;;;;;;5097890;28;20165;-45
2022/08/08 09:39:05;;;;;;;6.88;2.97;;;24.60;99.90;;;;;;5116122;28;20168;-49
2022/08/08 09:41:39;;;;;;;3.28;2.50;;;24.60;99.90;;;;;;5116482;28;20247;-47
2022/08/08 09:44:19;;;;;;;4.60;2.63;;;24.70;99.90;;;;;;5116173;28;20505;-49
2022/08/08 09:46:49;;;;;;;3.50;2.45;;;24.80;99.90;;;;;;5115941;28;20252;-48
2022/08/08 09:49:17;;;;;;;3.08;2.47;;;25.00;99.90;;;;;;5116029;28;20256;-48
2022/08/08 09:51:50;;;;;;;4.50;2.85;;;24.90;99.90;;;;;;5115573;28;20202;-45
2022/08/08 09:54:18;;;;;;;4.90;2.60;;;24.90;99.90;;;;;;5116071;28;20647;-43
2022/08/08 09:56:50;;;;;;;2.88;2.42;;;25.00;99.90;;;;;;5115537;28;20256;-49
2022/08/08 09:59:24;;;;;;;3.17;2.10;;;24.90;99.90;;;;;;5115727;28;20156;-52
2022/08/08 10:01:52;;;;;;;4.43;2.60;;;25.10;99.90;;;;;;5115927;28;20522;-52
2022/08/08 10:04:21;;;;;;;3.30;2.60;;;25.00;99.90;;;;;;5115655;28;20176;-44
2022/08/08 10:06:47;;;;;;;4.53;2.55;;;25.20;99.90;;;;;;5115649;28;20208;-52
2022/08/08 10:09:13;;;;;;;3.28;2.60;;;25.30;99.90;;;;;;5115201;28;20198;-47
2022/08/08 10:11:47;;;;;;;3.55;2.35;;;25.40;99.90;;;;;;5115158;28;20199;-50
2022/08/08 10:14:13;;;;;;;4.18;2.40;;;25.50;99.90;;;;;;5115001;28;20180;-50
2022/08/08 10:16:42;;;;;;;2.85;2.50;;;25.60;99.90;;;;;;5115316;28;20172;-45
2022/08/08 10:19:10;;;;;;;2.72;2.08;;;25.50;99.90;;;;;;5097371;28;20192;-48
2022/08/08 10:21:36;;;;;;;4.20;2.42;;;25.50;99.70;;;;;;5096726;28;20631;-46
2022/08/08 10:24:05;;;;;;;8.77;2.90;;;25.60;99.90;;;;;;5115104;28;20624;-44
2022/08/08 10:26:38;;;;;;;3.47;3.17;;;25.80;99.90;;;;;;5114963;28;20569;-44
2022/08/08 10:29:07;;;;;;;3.38;3.08;;;25.60;99.90;;;;;;5115594;28;20496;-44
2022/08/08 10:34:21;;;;;;;3.63;2.30;;;25.80;99.90;;;;;;5115047;28;20167;-44
2022/08/08 10:36:48;;;;;;;4.65;2.58;;;25.80;99.90;;;;;;5114638;28;20172;-44
2022/08/08 10:39:19;;;;;;;3.53;2.80;;;25.90;99.90;;;;;;5097010;28;20165;-45
2022/08/08 10:41:58;;;;;;;6.57;3.20;;;25.90;99.90;;;;;;5114990;28;20171;-44
2022/08/08 10:44:27;;;;;;;5.55;3.33;;;26.10;99.90;;;;;;5114939;28;20257;-46
2022/08/08 10:46:52;;;;;;;4.85;2.97;;;26.10;99.90;;;;;;5114549;28;20208;-44
2022/08/08 10:49:19;;;;;;;5.28;3.35;;;26.10;99.90;;;;;;5114460;28;20240;-50
2022/08/08 10:51:45;;;;;;;4.78;2.67;;;26.10;98.60;;;;;;5114992;28;20193;-46
2022/08/08 10:54:19;;;;;;;4.80;2.85;;;26.20;98.70;;;;;;5114963;28;20214;-44
2022/08/08 10:56:44;;;;;;;4.93;3.33;;;26.20;97.70;;;;;;5114788;28;20242;-45
2022/08/08 10:59:10;;;;;;;4.18;2.90;;;26.20;98.60;;;;;;5114673;28;20169;-44
2022/08/08 11:01:38;;;;;;;4.40;2.75;;;26.30;99.90;;;;;;5114666;28;20176;-48
2022/08/08 11:04:08;;;;;;;5.43;3.10;;;26.20;98.00;;;;;;5114855;28;20239;-51
2022/08/08 11:06:37;;;;;;;5.38;3.17;;;26.40;99.30;;;;;;5114674;28;20212;-53
2022/08/08 11:09:07;;;;;;;4.10;2.95;;;26.30;97.90;;;;;;5114679;28;20169;-54
2022/08/08 11:11:42;;;;;;;6.63;3.03;;;26.40;97.10;;;;;;5114240;28;20168;-53
2022/08/08 11:14:09;;;;;;;6.25;3.10;;;26.60;97.40;;;;;;5114273;28;20661;-53
2022/08/08 11:16:35;;;;;;;3.63;2.92;;;26.60;96.50;;;;;;5114556;28;20203;-51
2022/08/08 11:19:03;;;;;;;4.82;3.17;;;26.60;98.10;;;;;;5114583;28;20237;-51
2022/08/08 11:21:33;;;;;;;4.63;2.97;;;26.60;97.60;;;;;;5114595;28;20163;-52
2022/08/08 11:24:03;;;;;;;3.38;3.00;;;26.50;97.50;;;;;;5114680;28;20165;-57
2022/08/08 11:26:32;;;;;;;8.05;3.40;;;26.10;95.70;;;;;;5113291;28;20291;-57
2022/08/08 11:29:01;;;;;;;8.63;3.35;;;26.50;96.60;;;;;;5118547;27;20168;-54
2022/08/08 11:31:32;;;;;;;4.13;2.80;;;26.50;96.40;;;;;;5134752;27;20179;-47
2022/08/08 11:34:02;;;;;;;6.32;2.80;;;26.60;95.30;;;;;;5134624;27;20156;-46
2022/08/08 11:36:27;;;;;;;3.80;2.65;;;26.80;96.70;;;;;;5104079;28;20164;-42
2022/08/08 11:38:54;;;;;;;5.97;2.92;;;26.80;96.70;;;;;;5103808;28;20261;-45
2022/08/08 11:41:22;;;;;;;6.38;3.33;;;26.90;95.60;;;;;;5098975;28;20630;-46
2022/08/08 11:43:48;;;;;;;5.45;2.72;;;26.90;95.40;;;;;;5093069;28;20177;-47
2022/08/08 11:46:14;;;;;;;4.32;2.60;;;26.90;94.50;;;;;;5093356;28;20208;-44
2022/08/08 11:48:41;;;;;;;5.90;3.47;;;27.00;94.10;;;;;;5092055;28;20176;-46
2022/08/08 11:51:08;;;;;;;6.13;2.80;;;27.10;93.50;;;;;;5092898;28;20215;-48
2022/08/08 11:53:34;;;;;;;5.68;2.95;;;27.00;94.00;;;;;;5092484;28;20165;-51
2022/08/08 11:56:00;;;;;;;8.20;2.75;;;27.10;95.40;;;;;;5092785;28;20226;-49
2022/08/08 11:58:33;;;;;;;4.40;2.63;;;27.00;94.10;;;;;;5093167;28;20225;-48
2022/08/08 12:01:02;;;;;;;3.53;3.00;;;27.00;94.10;;;;;;5093137;28;20203;-52
2022/08/08 12:03:35;;;;;;;3.65;2.70;;;27.10;93.70;;;;;;5092957;28;20161;-54
2022/08/08 12:06:11;;;;;;;3.88;2.90;;;27.70;94.40;;;;;;5093114;28;20609;-52
2022/08/08 12:08:37;;;;;;;2.97;2.47;;;27.10;93.70;;;;;;5092831;28;20179;-44
2022/08/08 12:11:12;;;;;;;5.55;3.47;;;27.30;93.40;;;;;;5092223;28;20217;-42
2022/08/08 12:13:39;;;;;;;5.07;2.88;;;27.30;93.10;;;;;;5092163;28;20264;-51
2022/08/08 12:16:08;;;;;;;5.40;3.30;;;27.50;93.80;;;;;;5092655;28;20187;-47
2022/08/08 12:18:46;;;;;;;6.78;3.22;;;27.40;92.80;;;;;;5092030;28;20169;-43
2022/08/08 12:21:24;;;;;;;5.35;3.03;;;27.30;92.90;;;;;;5092539;28;20164;-50
2022/08/08 12:24:01;;;;;;;8.70;3.10;;;27.50;92.30;;;;;;5092367;28;20253;-50
2022/08/08 12:26:54;;;;;;;6.15;3.03;;;27.50;91.90;;;;;;5091604;28;20188;-53
2022/08/08 12:29:27;;;;;;;6.47;2.88;;;27.40;91.80;;;;;;5091279;28;20185;-45
2022/08/08 12:32:13;;;;;;;4.88;3.05;;;27.30;91.20;;;;;;5092221;28;20165;-46
2022/08/08 12:35:01;;;;;;;5.13;2.80;;;27.30;91.80;;;;;;5092192;28;20192;-49
2022/08/08 12:37:31;;;;;;;6.72;3.05;;;27.40;91.50;;;;;;5092167;28;20235;-51
2022/08/08 12:40:12;;;;;;;6.10;3.70;;;27.50;92.00;;;;;;5092047;28;20192;-52
2022/08/08 12:42:45;;;;;;;4.95;2.85;;;27.60;90.30;;;;;;5098639;27;20677;-43
2022/08/08 12:45:11;;;;;;;6.60;3.05;;;27.70;91.00;;;;;;5133064;27;20163;-47
2022/08/08 12:47:36;;;;;;;6.90;3.08;;;27.70;91.30;;;;;;5132944;27;20248;-43
2022/08/08 12:50:02;;;;;;;3.55;2.53;;;27.60;87.70;;;;;;5132364;27;20186;-44
2022/08/08 12:52:33;;;;;;;6.47;3.22;;;27.50;88.90;;;;;;5131768;27;20163;-45
2022/08/08 12:55:09;;;;;;;4.72;2.85;;;27.40;90.10;;;;;;5132958;27;20190;-48
2022/08/08 12:57:35;;;;;;;7.18;3.83;;;27.30;90.20;;;;;;5114106;27;20200;-46
2022/08/08 13:00:02;;;;;;;5.63;3.08;;;27.50;90.90;;;;;;5132353;27;20221;-46
2022/08/08 13:02:32;;;;;;;5.43;2.92;;;27.70;90.50;;;;;;5132799;27;20164;-46
2022/08/08 13:05:03;;;;;;;4.75;3.22;;;27.90;89.60;;;;;;5132815;27;20522;-48
2022/08/08 13:07:34;;;;;;;4.13;2.88;;;27.70;90.40;;;;;;5132540;27;20195;-46
2022/08/08 13:10:02;;;;;;;3.92;2.97;;;27.80;90.00;;;;;;5132265;27;20711;-44
2022/08/08 13:12:31;;;;;;;4.35;2.80;;;27.90;89.60;;;;;;5132491;28;20370;-45
2022/08/08 13:15:04;;;;;;;5.20;2.92;;;27.60;90.30;;;;;;5132969;28;20167;-45
2022/08/08 13:17:31;;;;;;;4.10;3.03;;;27.70;89.50;;;;;;5133026;28;20168;-45
2022/08/08 13:19:56;;;;;;;4.55;2.63;;;27.80;90.30;;;;;;5132610;28;20162;-44
2022/08/08 13:22:23;;;;;;;5.60;3.10;;;27.70;89.20;;;;;;5132028;28;20254;-45
2022/08/08 13:24:49;;;;;;;10.52;3.35;;;27.80;91.30;;;;;;5132489;28;20615;-45